createdAt,value
2019-02-12T00:01:06.270Z,1.40
2019-02-12T00:03:35.353Z,1.40
2019-02-12T00:06:04.385Z,1.50
2019-02-12T00:08:33.331Z,1.50
2019-02-12T00:11:02.316Z,1.60
2019-02-12T00:13:31.349Z,1.70
2019-02-12T00:16:00.430Z,1.90
2019-02-12T00:18:29.421Z,2.10
2019-02-12T00:20:58.447Z,2.20
2019-02-12T00:23:27.459Z,2.30
2019-02-12T00:25:56.450Z,2.30
2019-02-12T00:28:25.478Z,2.30
2019-02-12T00:30:54.445Z,2.30
2019-02-12T00:33:23.439Z,2.20
2019-02-12T00:35:52.506Z,2.30
2019-02-12T00:38:21.443Z,2.30
2019-02-12T00:40:50.458Z,2.30
2019-02-12T00:43:19.476Z,2.30
2019-02-12T00:45:48.474Z,2.30
2019-02-12T00:48:17.375Z,2.20
2019-02-12T00:50:49.674Z,2.30
2019-02-12T00:53:18.734Z,2.40
2019-02-12T00:55:47.815Z,2.40
2019-02-12T00:58:19.771Z,2.40
2019-02-12T01:00:48.833Z,2.50
2019-02-12T01:03:17.760Z,2.60
2019-02-12T01:05:46.819Z,2.60
2019-02-12T01:08:15.888Z,2.50
2019-02-12T01:10:45.217Z,2.40
2019-02-12T01:13:14.324Z,2.30
2019-02-12T01:15:43.320Z,2.30
2019-02-12T01:18:12.258Z,2.40
2019-02-12T01:20:41.261Z,2.40
2019-02-12T01:23:10.273Z,2.50
2019-02-12T01:25:39.200Z,2.50
2019-02-12T01:28:08.091Z,2.40
2019-02-12T01:30:37.102Z,2.40
2019-02-12T01:33:06.259Z,2.40
2019-02-12T01:35:35.235Z,2.40
2019-02-12T01:38:04.397Z,2.20
2019-02-12T01:40:33.244Z,2.10
2019-02-12T01:43:05.297Z,2.00
2019-02-12T01:45:34.313Z,2.00
2019-02-12T01:48:03.348Z,2.00
2019-02-12T01:50:32.388Z,1.90
2019-02-12T01:53:01.470Z,1.90
2019-02-12T01:55:30.572Z,1.90
2019-02-12T01:57:59.601Z,1.80
2019-02-12T02:00:28.624Z,1.80
2019-02-12T02:02:57.651Z,1.80
2019-02-12T02:05:26.754Z,1.80
2019-02-12T02:07:55.734Z,1.70
2019-02-12T02:10:24.744Z,1.70
2019-02-12T02:12:56.646Z,1.70
2019-02-12T02:15:25.631Z,1.70
2019-02-12T02:17:54.704Z,1.60
2019-02-12T02:20:23.844Z,1.60
2019-02-12T02:22:52.745Z,1.60
2019-02-12T02:25:21.734Z,1.50
2019-02-12T02:27:50.773Z,1.50
2019-02-12T02:30:19.696Z,1.50
2019-02-12T02:32:48.690Z,1.60
2019-02-12T02:35:17.663Z,1.60
2019-02-12T02:37:46.760Z,1.60
2019-02-12T02:40:15.692Z,1.70
2019-02-12T02:42:44.652Z,1.60
2019-02-12T02:45:13.717Z,1.60
2019-02-12T02:47:42.807Z,1.60
2019-02-12T02:50:11.969Z,1.60
2019-02-12T02:52:40.969Z,1.50
2019-02-12T02:55:09.953Z,1.40
2019-02-12T02:57:39.333Z,1.40
2019-02-12T03:00:09.143Z,1.40
2019-02-12T03:02:38.287Z,1.40
2019-02-12T03:05:08.919Z,1.50
2019-02-12T03:07:37.930Z,1.40
2019-02-12T03:10:07.274Z,1.40
2019-02-12T03:12:36.358Z,1.30
2019-02-12T03:15:05.896Z,1.30
2019-02-12T03:17:34.777Z,1.30
2019-02-12T03:20:04.245Z,1.30
2019-02-12T03:22:33.251Z,1.30
2019-02-12T03:25:02.371Z,1.20
2019-02-12T03:27:31.418Z,1.20
2019-02-12T03:30:00.567Z,1.20
2019-02-12T03:32:29.882Z,1.20
2019-02-12T03:34:58.906Z,1.20
2019-02-12T03:37:27.835Z,1.10
2019-02-12T03:39:56.841Z,1.10
2019-02-12T03:42:26.026Z,1.10
2019-02-12T03:44:55.005Z,1.10
2019-02-12T03:47:24.016Z,1.10
2019-02-12T03:49:53.182Z,1.00
2019-02-12T03:52:22.311Z,1.00
2019-02-12T03:54:51.404Z,1.00
2019-02-12T03:57:20.358Z,0.90
2019-02-12T03:59:49.292Z,0.90
2019-02-12T04:02:18.376Z,0.90
2019-02-12T04:04:47.474Z,0.80
2019-02-12T04:07:16.414Z,0.90
2019-02-12T04:09:45.443Z,0.90
2019-02-12T04:12:14.484Z,0.90
2019-02-12T04:14:43.728Z,0.90
2019-02-12T04:17:12.786Z,0.90
2019-02-12T04:19:41.930Z,0.80
2019-02-12T04:22:10.942Z,0.80
2019-02-12T04:24:39.979Z,0.80
2019-02-12T04:27:09.015Z,0.90
2019-02-12T04:29:38.088Z,0.90
2019-02-12T04:32:07.042Z,0.90
2019-02-12T04:34:36.226Z,0.80
2019-02-12T04:37:05.315Z,0.90
2019-02-12T04:39:34.398Z,0.90
2019-02-12T04:42:03.453Z,0.90
2019-02-12T04:44:32.457Z,0.90
2019-02-12T04:47:01.526Z,1.00
2019-02-12T04:49:30.647Z,1.10
2019-02-12T04:51:59.661Z,1.10
2019-02-12T04:54:28.673Z,1.10
2019-02-12T04:56:57.772Z,1.10
2019-02-12T04:59:26.762Z,1.10
2019-02-12T05:01:55.695Z,1.00
2019-02-12T05:04:24.784Z,1.00
2019-02-12T05:06:53.789Z,1.00
2019-02-12T05:09:23.398Z,1.00
2019-02-12T05:11:54.961Z,0.90
2019-02-12T05:14:24.019Z,0.90
2019-02-12T05:16:53.056Z,0.90
2019-02-12T05:19:22.021Z,0.90
2019-02-12T05:21:51.106Z,0.90
2019-02-12T05:24:20.034Z,0.90
2019-02-12T05:26:49.076Z,0.90
2019-02-12T05:29:18.480Z,1.00
2019-02-12T05:31:47.713Z,1.00
2019-02-12T05:34:16.809Z,1.00
2019-02-12T05:36:45.789Z,1.10
2019-02-12T05:39:14.844Z,1.20
2019-02-12T05:41:43.901Z,1.20
2019-02-12T05:44:12.887Z,1.30
2019-02-12T05:46:41.901Z,1.30
2019-02-12T05:49:11.039Z,1.30
2019-02-12T05:51:39.985Z,1.40
2019-02-12T05:54:08.929Z,1.40
2019-02-12T05:56:37.981Z,1.40
2019-02-12T05:59:07.009Z,1.40
2019-02-12T06:01:36.237Z,1.40
2019-02-12T06:04:05.277Z,1.40
2019-02-12T06:06:34.279Z,1.40
2019-02-12T06:09:04.074Z,1.40
2019-02-12T06:11:33.050Z,1.40
2019-02-12T06:14:02.113Z,1.40
2019-02-12T06:16:31.117Z,1.30
2019-02-12T06:19:00.246Z,1.40
2019-02-12T06:21:29.252Z,1.40
2019-02-12T06:23:58.417Z,1.40
2019-02-12T06:26:27.729Z,1.40
2019-02-12T06:28:56.770Z,1.40
2019-02-12T06:31:26.253Z,1.50
2019-02-12T06:33:55.361Z,1.50
2019-02-12T06:36:24.366Z,1.60
2019-02-12T06:38:53.392Z,1.60
2019-02-12T06:41:22.542Z,1.60
2019-02-12T06:43:51.462Z,1.60
2019-02-12T06:46:20.418Z,1.70
2019-02-12T06:48:52.557Z,1.70
2019-02-12T06:51:21.694Z,1.70
2019-02-12T06:53:50.654Z,1.70
2019-02-12T06:56:19.610Z,1.80
2019-02-12T06:58:48.612Z,1.80
2019-02-12T07:01:17.720Z,1.80
2019-02-12T07:04:05.374Z,1.90
2019-02-12T07:07:15.668Z,1.90
2019-02-12T07:10:15.273Z,1.90
2019-02-12T07:13:31.310Z,2.00
2019-02-12T07:16:41.451Z,2.00
2019-02-12T07:19:36.284Z,2.10
2019-02-12T07:22:47.765Z,2.20
2019-02-12T07:25:50.045Z,2.20
2019-02-12T07:29:03.278Z,2.30
2019-02-12T07:32:13.063Z,2.40
2019-02-12T07:35:00.322Z,2.40
2019-02-12T07:37:51.180Z,2.50
2019-02-12T07:40:31.191Z,2.60
2019-02-12T07:43:55.541Z,2.70
2019-02-12T07:47:00.316Z,2.80
2019-02-12T07:50:11.079Z,3.00
2019-02-12T07:52:56.285Z,3.30
2019-02-12T07:56:17.908Z,3.40
2019-02-12T07:59:27.230Z,3.60
2019-02-12T08:02:48.972Z,3.70
2019-02-12T08:05:48.759Z,4.10
2019-02-12T08:09:06.094Z,4.30
2019-02-12T08:11:47.048Z,4.20
2019-02-12T08:15:07.854Z,4.10
2019-02-12T08:18:05.472Z,4.10
2019-02-12T08:21:11.404Z,4.00
2019-02-12T08:23:48.137Z,4.00
2019-02-12T08:26:30.755Z,4.00
2019-02-12T08:29:50.455Z,4.00
2019-02-12T08:32:45.310Z,4.00
2019-02-12T08:35:46.174Z,3.90
2019-02-12T08:38:27.202Z,4.00
2019-02-12T08:41:38.780Z,4.00
2019-02-12T08:44:21.224Z,4.10
2019-02-12T08:47:38.272Z,4.10
2019-02-12T08:50:45.286Z,4.20
2019-02-12T08:54:04.887Z,4.20
2019-02-12T08:56:51.792Z,4.20
2019-02-12T08:59:48.670Z,4.20
2019-02-12T09:03:04.301Z,4.20
2019-02-12T09:05:55.193Z,4.20
2019-02-12T09:08:32.844Z,4.30
2019-02-12T09:11:39.043Z,4.30
2019-02-12T09:14:29.898Z,4.30
2019-02-12T09:17:45.857Z,4.40
2019-02-12T09:20:36.885Z,4.40
2019-02-12T09:23:42.873Z,4.50
2019-02-12T09:27:14.571Z,4.50
2019-02-12T09:30:07.833Z,4.60
2019-02-12T09:33:05.638Z,4.70
2019-02-12T09:36:20.987Z,4.70
2019-02-12T09:39:20.263Z,4.70
2019-02-12T09:42:48.795Z,4.90
2019-02-12T09:45:48.603Z,5.00
2019-02-12T09:48:30.590Z,5.10
2019-02-12T09:51:31.888Z,5.20
2019-02-12T09:54:48.356Z,5.30
2019-02-12T09:57:55.223Z,5.40
2019-02-12T10:00:46.496Z,5.60
2019-02-12T10:03:43.768Z,5.80
2019-02-12T10:06:38.326Z,6.00
2019-02-12T10:09:38.742Z,6.10
2019-02-12T10:12:42.114Z,6.20
2019-02-12T10:15:43.432Z,6.40
2019-02-12T10:18:24.030Z,6.50
2019-02-12T10:21:28.350Z,6.50
2019-02-12T10:24:37.211Z,6.40
2019-02-12T10:27:41.252Z,6.30
2019-02-12T10:30:30.430Z,6.30
2019-02-12T10:32:59.410Z,6.30
2019-02-12T10:35:47.575Z,6.30
2019-02-12T10:38:16.473Z,6.20
2019-02-12T10:40:45.551Z,6.30
2019-02-12T10:43:14.560Z,6.20
2019-02-12T10:45:46.240Z,6.20
2019-02-12T10:48:15.239Z,6.30
2019-02-12T10:50:44.245Z,6.30
2019-02-12T10:53:13.385Z,6.40
2019-02-12T10:55:42.393Z,6.30
2019-02-12T10:58:11.404Z,6.40
2019-02-12T11:00:40.377Z,6.30
2019-02-12T11:03:09.456Z,6.30
2019-02-12T11:05:38.549Z,6.40
2019-02-12T11:08:07.777Z,6.60
2019-02-12T11:10:36.725Z,6.80
2019-02-12T11:13:05.803Z,6.90
2019-02-12T11:15:34.946Z,7.00
2019-02-12T11:18:03.971Z,7.10
2019-02-12T11:20:33.123Z,7.10
2019-02-12T11:23:02.081Z,7.20
2019-02-12T11:25:31.178Z,7.10
2019-02-12T11:28:03.283Z,7.10
2019-02-12T11:30:32.303Z,7.10
2019-02-12T11:33:01.291Z,7.00
2019-02-12T11:35:30.299Z,7.20
2019-02-12T11:37:59.314Z,7.20
2019-02-12T11:40:28.440Z,7.20
2019-02-12T11:42:57.422Z,7.30
2019-02-12T11:45:26.390Z,7.40
2019-02-12T11:47:55.397Z,7.50
2019-02-12T11:50:24.400Z,7.60
2019-02-12T11:52:53.460Z,7.70
2019-02-12T11:55:22.505Z,7.70
2019-02-12T11:57:51.516Z,7.90
2019-02-12T12:00:25.935Z,7.80
2019-02-12T12:02:54.930Z,7.70
2019-02-12T12:05:23.951Z,7.60
2019-02-12T12:07:52.995Z,7.60
2019-02-12T12:10:22.071Z,7.40
2019-02-12T12:12:50.994Z,7.40
2019-02-12T12:15:20.101Z,7.20
2019-02-12T12:17:49.104Z,7.20
2019-02-12T12:20:18.025Z,7.30
2019-02-12T12:22:47.005Z,7.40
2019-02-12T12:25:16.085Z,7.40
2019-02-12T12:27:45.059Z,7.30
2019-02-12T12:30:14.161Z,7.40
2019-02-12T12:32:43.177Z,7.40
2019-02-12T12:35:12.382Z,7.50
2019-02-12T12:37:41.511Z,7.50
2019-02-12T12:40:10.592Z,7.40
2019-02-12T12:42:39.631Z,7.50
2019-02-12T12:45:09.418Z,7.50
2019-02-12T12:47:38.396Z,7.50
2019-02-12T12:50:08.722Z,7.50
2019-02-12T12:52:37.818Z,7.50
2019-02-12T12:55:06.961Z,7.60
2019-02-12T12:57:41.568Z,7.60
2019-02-12T13:00:08.355Z,7.70
2019-02-12T13:02:37.569Z,7.70
2019-02-12T13:05:07.982Z,7.80
2019-02-12T13:07:37.064Z,7.90
2019-02-12T13:10:07.942Z,7.90
2019-02-12T13:12:37.053Z,7.90
2019-02-12T13:15:06.942Z,8.00
2019-02-12T13:17:36.054Z,8.00
2019-02-12T13:20:06.138Z,8.10
2019-02-12T13:22:35.162Z,8.10
2019-02-12T13:25:08.668Z,8.10
2019-02-12T13:27:35.087Z,8.10
2019-02-12T13:30:04.632Z,8.10
2019-02-12T13:32:33.726Z,8.10
2019-02-12T13:35:02.796Z,8.10
2019-02-12T13:37:31.787Z,8.10
2019-02-12T13:40:00.809Z,8.10
2019-02-12T13:42:29.903Z,8.00
2019-02-12T13:44:58.935Z,8.10
2019-02-12T13:47:27.929Z,8.10
2019-02-12T13:49:56.913Z,8.20
2019-02-12T13:52:25.943Z,8.20
2019-02-12T13:55:17.368Z,8.20
2019-02-12T13:57:44.860Z,8.20
2019-02-12T14:00:15.052Z,8.30
2019-02-12T14:02:44.083Z,8.40
2019-02-12T14:05:15.382Z,8.40
2019-02-12T14:07:44.564Z,8.60
2019-02-12T14:10:13.734Z,8.70
2019-02-12T14:12:42.873Z,8.80
2019-02-12T14:15:12.405Z,8.80
2019-02-12T14:17:41.426Z,9.00
2019-02-12T14:20:12.230Z,9.00
2019-02-12T14:22:41.260Z,9.10
2019-02-12T14:25:10.792Z,9.20
2019-02-12T14:27:39.920Z,9.10
2019-02-12T14:30:10.760Z,9.10
2019-02-12T14:32:40.827Z,9.00
2019-02-12T14:35:10.482Z,9.00
2019-02-12T14:37:39.550Z,9.00
2019-02-12T14:40:09.636Z,9.00
2019-02-12T14:42:38.930Z,9.00
2019-02-12T14:45:09.928Z,8.90
2019-02-12T14:47:38.998Z,8.90
2019-02-12T14:50:09.467Z,8.90
2019-02-12T14:52:38.546Z,8.80
2019-02-12T14:55:07.643Z,8.90
2019-02-12T14:57:36.801Z,9.00
2019-02-12T15:00:06.757Z,9.00
2019-02-12T15:02:35.785Z,9.00
2019-02-12T15:05:05.171Z,9.00
2019-02-12T15:07:34.171Z,8.90
2019-02-12T15:10:03.181Z,8.80
2019-02-12T15:12:32.231Z,8.80
2019-02-12T15:15:04.157Z,8.80
2019-02-12T15:17:33.181Z,8.70
2019-02-12T15:20:02.209Z,8.60
2019-02-12T15:22:31.309Z,8.50
2019-02-12T15:25:00.401Z,8.40
2019-02-12T15:27:29.518Z,8.40
2019-02-12T15:29:58.443Z,8.40
2019-02-12T15:32:27.456Z,8.40
2019-02-12T15:34:56.679Z,8.40
2019-02-12T15:37:25.699Z,8.30
2019-02-12T15:39:55.664Z,8.30
2019-02-12T15:42:24.889Z,8.20
2019-02-12T15:44:53.924Z,8.20
2019-02-12T15:47:23.000Z,8.20
2019-02-12T15:49:52.048Z,8.10
2019-02-12T15:52:21.063Z,8.10
2019-02-12T15:54:50.238Z,8.10
2019-02-12T15:57:19.284Z,8.10
2019-02-12T15:59:48.232Z,8.10
2019-02-12T16:02:17.302Z,8.00
2019-02-12T16:04:48.179Z,8.00
2019-02-12T16:07:17.079Z,7.90
2019-02-12T16:09:46.172Z,7.80
2019-02-12T16:12:15.262Z,7.90
2019-02-12T16:14:44.600Z,7.80
2019-02-12T16:17:16.557Z,7.70
2019-02-12T16:19:47.088Z,7.70
2019-02-12T16:22:17.349Z,7.60
2019-02-12T16:24:46.312Z,7.60
2019-02-12T16:27:15.299Z,7.60
2019-02-12T16:29:44.403Z,7.50
2019-02-12T16:32:13.382Z,7.50
2019-02-12T16:34:42.504Z,7.40
2019-02-12T16:37:11.614Z,7.30
2019-02-12T16:39:40.529Z,7.20
2019-02-12T16:42:09.647Z,7.20
2019-02-12T16:44:38.747Z,7.20
2019-02-12T16:47:07.885Z,7.10
2019-02-12T16:49:36.921Z,7.10
2019-02-12T16:52:06.175Z,6.90
2019-02-12T16:54:35.251Z,6.80
2019-02-12T16:57:04.466Z,6.70
2019-02-12T16:59:33.482Z,6.60
2019-02-12T17:02:02.475Z,6.60
2019-02-12T17:04:31.601Z,6.50
2019-02-12T17:07:00.706Z,6.50
2019-02-12T17:09:29.717Z,6.50
2019-02-12T17:11:58.805Z,6.50
2019-02-12T17:14:27.894Z,6.40
2019-02-12T17:16:56.980Z,6.30
2019-02-12T17:19:25.981Z,6.30
2019-02-12T17:21:54.983Z,6.20
2019-02-12T17:24:24.008Z,6.20
2019-02-12T17:26:53.062Z,6.20
2019-02-12T17:29:22.206Z,6.20
2019-02-12T17:31:51.304Z,6.10
2019-02-12T17:34:20.400Z,6.10
2019-02-12T17:36:49.428Z,6.10
2019-02-12T17:39:20.154Z,6.10
2019-02-12T17:41:49.330Z,6.10
2019-02-12T17:44:18.758Z,6.00
2019-02-12T17:46:47.856Z,6.00
2019-02-12T17:49:16.945Z,6.10
2019-02-12T17:51:46.359Z,6.10
2019-02-12T17:54:16.011Z,6.10
2019-02-12T17:56:45.456Z,6.00
2019-02-12T17:59:14.725Z,5.90
2019-02-12T18:01:43.847Z,5.90
2019-02-12T18:04:13.047Z,5.90
2019-02-12T18:06:42.095Z,5.90
2019-02-12T18:09:11.181Z,5.80
2019-02-12T18:11:40.338Z,5.80
2019-02-12T18:14:09.507Z,5.90
2019-02-12T18:16:38.521Z,5.90
2019-02-12T18:19:10.499Z,5.90
2019-02-12T18:21:39.733Z,5.80
2019-02-12T18:24:08.884Z,5.80
2019-02-12T18:26:38.013Z,5.80
2019-02-12T18:29:07.548Z,5.80
2019-02-12T18:31:36.771Z,5.80
2019-02-12T18:34:06.042Z,5.80
2019-02-12T18:36:35.189Z,5.90
2019-02-12T18:39:05.110Z,5.90
2019-02-12T18:41:39.668Z,5.90
2019-02-12T18:44:08.926Z,5.90
2019-02-12T18:46:37.979Z,5.90
2019-02-12T18:49:07.096Z,5.90
2019-02-12T18:51:36.144Z,5.90
2019-02-12T18:54:05.270Z,5.90
2019-02-12T18:56:41.406Z,5.90
2019-02-12T18:59:05.167Z,5.90
2019-02-12T19:01:34.328Z,5.90
2019-02-12T19:04:03.434Z,5.80
2019-02-12T19:06:32.502Z,5.80
2019-02-12T19:09:01.436Z,5.80
2019-02-12T19:11:30.692Z,5.80
2019-02-12T19:13:59.820Z,5.80
2019-02-12T19:16:28.956Z,5.80
2019-02-12T19:18:58.052Z,5.70
2019-02-12T19:21:27.248Z,5.80
2019-02-12T19:23:56.370Z,5.80
2019-02-12T19:26:25.543Z,5.70
2019-02-12T19:28:54.678Z,5.80
2019-02-12T19:31:23.753Z,5.80
2019-02-12T19:33:52.828Z,5.80
2019-02-12T19:36:21.912Z,5.80
2019-02-12T19:38:50.967Z,5.70
2019-02-12T19:41:20.069Z,5.70
2019-02-12T19:43:49.160Z,5.80
2019-02-12T19:46:18.238Z,5.70
2019-02-12T19:48:47.440Z,5.70
2019-02-12T19:51:16.579Z,5.70
2019-02-12T19:53:47.533Z,5.70
2019-02-12T19:56:16.886Z,5.70
2019-02-12T19:58:45.922Z,5.80
2019-02-12T20:01:16.666Z,5.80
2019-02-12T20:03:45.911Z,5.80
2019-02-12T20:06:15.022Z,5.70
2019-02-12T20:08:44.251Z,5.70
2019-02-12T20:11:13.534Z,5.70
2019-02-12T20:13:42.504Z,5.70
2019-02-12T20:16:11.537Z,5.70
2019-02-12T20:18:40.722Z,5.70
2019-02-12T20:21:10.163Z,5.60
2019-02-12T20:23:39.286Z,5.70
2019-02-12T20:26:08.376Z,5.70
2019-02-12T20:28:37.422Z,5.70
2019-02-12T20:31:06.822Z,5.80
2019-02-12T20:33:37.914Z,5.80
2019-02-12T20:36:06.819Z,5.90
2019-02-12T20:38:35.914Z,5.90
2019-02-12T20:41:05.310Z,5.90
2019-02-12T20:43:34.384Z,5.90
2019-02-12T20:46:03.633Z,5.90
2019-02-12T20:48:32.852Z,6.00
2019-02-12T20:51:01.948Z,6.10
2019-02-12T20:53:30.997Z,6.00
2019-02-12T20:56:00.118Z,6.00
2019-02-12T20:58:29.247Z,6.00
2019-02-12T21:00:58.285Z,5.90
2019-02-12T21:03:27.339Z,6.00
2019-02-12T21:05:56.305Z,6.00
2019-02-12T21:08:25.543Z,6.00
2019-02-12T21:10:54.613Z,5.90
2019-02-12T21:13:23.643Z,5.90
2019-02-12T21:15:52.588Z,5.80
2019-02-12T21:18:21.645Z,5.80
2019-02-12T21:20:53.865Z,5.80
2019-02-12T21:23:22.987Z,5.70
2019-02-12T21:25:52.092Z,5.70
2019-02-12T21:28:21.123Z,5.70
2019-02-12T21:30:50.219Z,5.70
2019-02-12T21:33:19.295Z,5.70
2019-02-12T21:35:48.400Z,5.60
2019-02-12T21:38:19.430Z,5.60
2019-02-12T21:40:48.535Z,5.60
2019-02-12T21:43:17.743Z,5.50
2019-02-12T21:45:46.770Z,5.50
2019-02-12T21:48:15.810Z,5.40
2019-02-12T21:50:44.900Z,5.40
2019-02-12T21:53:14.046Z,5.40
2019-02-12T21:55:43.176Z,5.40
2019-02-12T21:58:12.194Z,5.30
2019-02-12T22:00:43.538Z,5.30
2019-02-12T22:03:12.714Z,5.30
2019-02-12T22:05:41.630Z,5.30
2019-02-12T22:08:13.423Z,5.30
2019-02-12T22:10:46.501Z,5.30
2019-02-12T22:13:14.670Z,5.20
2019-02-12T22:15:43.783Z,5.20
2019-02-12T22:18:12.913Z,5.20
2019-02-12T22:20:43.194Z,5.20
2019-02-12T22:23:12.260Z,5.10
2019-02-12T22:25:41.353Z,5.20
2019-02-12T22:28:10.399Z,5.20
2019-02-12T22:30:39.586Z,5.20
2019-02-12T22:33:08.631Z,5.20
2019-02-12T22:35:38.815Z,5.10
2019-02-12T22:38:07.773Z,5.10
2019-02-12T22:40:36.871Z,5.10
2019-02-12T22:43:05.947Z,5.10
2019-02-12T22:45:34.979Z,5.10
2019-02-12T22:48:04.073Z,5.10
2019-02-12T22:50:33.165Z,5.10
2019-02-12T22:53:02.241Z,5.00
2019-02-12T22:55:31.190Z,5.00
2019-02-12T22:58:00.202Z,5.00
2019-02-12T23:01:11.393Z,5.00
2019-02-12T23:03:40.507Z,4.90
2019-02-12T23:06:09.574Z,4.90
2019-02-12T23:08:38.541Z,4.90
2019-02-12T23:11:07.704Z,4.90
2019-02-12T23:13:36.841Z,4.90
2019-02-12T23:16:05.947Z,5.00
2019-02-12T23:18:35.016Z,5.00
2019-02-12T23:21:04.108Z,4.90
2019-02-12T23:23:33.132Z,4.90
2019-02-12T23:26:02.232Z,4.80
2019-02-12T23:28:31.727Z,4.80
2019-02-12T23:31:00.805Z,4.80
2019-02-12T23:33:29.894Z,4.90
2019-02-12T23:35:58.826Z,4.80
2019-02-12T23:38:27.961Z,4.80
2019-02-12T23:40:56.938Z,4.80
2019-02-12T23:43:26.002Z,4.80
2019-02-12T23:45:58.127Z,4.80
2019-02-12T23:48:27.204Z,4.80
2019-02-12T23:50:56.275Z,4.70
2019-02-12T23:53:25.314Z,4.70
2019-02-12T23:55:54.277Z,4.70
2019-02-12T23:58:23.205Z,4.70
